createdAt,value
2022-09-06T00:02:51.007Z,2.97
2022-09-06T00:07:58.630Z,2.97
2022-09-06T00:13:05.538Z,2.97
2022-09-06T00:18:12.735Z,2.97
2022-09-06T00:23:20.704Z,2.97
2022-09-06T00:28:28.468Z,2.96
2022-09-06T00:33:35.953Z,2.97
2022-09-06T00:38:43.212Z,2.97
2022-09-06T00:43:51.167Z,2.97
2022-09-06T00:48:59.034Z,2.97
2022-09-06T00:54:05.923Z,2.96
2022-09-06T00:59:13.696Z,2.96
2022-09-06T01:04:20.728Z,2.96
2022-09-06T01:09:27.935Z,2.96
2022-09-06T01:14:35.479Z,2.96
2022-09-06T01:19:43.528Z,2.96
2022-09-06T01:24:50.981Z,2.97
2022-09-06T01:29:58.969Z,2.97
2022-09-06T01:35:06.542Z,2.97
2022-09-06T01:40:13.741Z,2.97
2022-09-06T01:45:20.948Z,2.97
2022-09-06T01:50:28.808Z,2.96
2022-09-06T01:55:36.682Z,2.97
2022-09-06T02:00:44.415Z,2.96
2022-09-06T02:05:51.998Z,2.97
2022-09-06T02:10:59.469Z,2.96
2022-09-06T02:16:06.799Z,2.96
2022-09-06T02:21:14.542Z,2.96
2022-09-06T02:26:22.411Z,2.96
2022-09-06T02:31:31.967Z,2.97
2022-09-06T02:36:40.043Z,2.97
2022-09-06T02:41:48.043Z,2.96
2022-09-06T02:46:55.614Z,2.96
2022-09-06T02:52:03.107Z,2.96
2022-09-06T02:57:10.018Z,2.96
2022-09-06T03:02:17.215Z,2.96
2022-09-06T03:07:24.410Z,2.97
2022-09-06T03:12:33.815Z,2.95
2022-09-06T03:17:40.787Z,2.96
2022-09-06T03:22:48.060Z,2.96
2022-09-06T03:27:54.571Z,2.96
2022-09-06T03:33:02.771Z,2.96
2022-09-06T03:38:09.070Z,2.96
2022-09-06T03:43:17.650Z,2.96
2022-09-06T03:48:26.361Z,2.96
2022-09-06T03:53:35.125Z,2.96
2022-09-06T03:58:48.641Z,2.96
2022-09-06T04:03:55.939Z,2.96
2022-09-06T04:09:04.254Z,2.96
2022-09-06T04:14:12.102Z,2.96
2022-09-06T04:19:20.919Z,2.96
2022-09-06T04:24:28.432Z,2.96
2022-09-06T04:29:36.251Z,2.96
2022-09-06T04:34:43.936Z,2.96
2022-09-06T04:39:52.446Z,2.95
2022-09-06T04:45:01.449Z,2.96
2022-09-06T04:50:08.300Z,2.96
2022-09-06T04:55:18.171Z,2.95
2022-09-06T05:00:25.818Z,2.97
2022-09-06T05:05:33.418Z,2.96
2022-09-06T05:10:41.835Z,2.96
2022-09-06T05:15:51.172Z,2.96
2022-09-06T05:20:58.462Z,2.97
2022-09-06T05:26:07.482Z,2.97
2022-09-06T05:31:15.899Z,2.97
2022-09-06T05:36:24.362Z,2.97
2022-09-06T05:41:32.415Z,2.98
2022-09-06T05:46:40.309Z,2.97
2022-09-06T05:51:47.119Z,2.99
2022-09-06T05:56:55.495Z,2.98
2022-09-06T06:02:04.291Z,2.99
2022-09-06T06:07:11.610Z,2.98
2022-09-06T06:12:18.159Z,2.99
2022-09-06T06:17:25.801Z,2.99
2022-09-06T06:22:33.219Z,3.0
2022-09-06T06:27:41.937Z,2.99
2022-09-06T06:32:49.750Z,3.0
2022-09-06T06:37:59.253Z,3.0
2022-09-06T06:43:05.882Z,3.0
2022-09-06T06:48:12.415Z,3.0
2022-09-06T06:53:21.880Z,3.0
2022-09-06T06:58:31.229Z,3.0
2022-09-06T07:03:39.192Z,3.0
2022-09-06T07:08:46.447Z,3.0
2022-09-06T07:13:54.324Z,2.99
2022-09-06T07:19:02.524Z,3.01
2022-09-06T07:24:10.085Z,3.01
2022-09-06T07:29:18.288Z,2.99
2022-09-06T07:34:24.895Z,3.0
2022-09-06T07:39:32.698Z,3.01
2022-09-06T07:44:41.099Z,3.01
2022-09-06T07:49:48.632Z,3.0
2022-09-06T07:54:56.356Z,3.01
2022-09-06T08:00:10.471Z,3.0
2022-09-06T08:05:17.790Z,3.0
2022-09-06T08:10:25.680Z,3.0
2022-09-06T08:15:33.990Z,2.99
2022-09-06T08:20:40.537Z,3.0
2022-09-06T08:25:49.053Z,3.0
2022-09-06T08:31:01.978Z,3.0
2022-09-06T08:36:09.835Z,3.0
2022-09-06T08:41:17.746Z,3.01
2022-09-06T08:46:25.518Z,3.0
2022-09-06T08:51:33.323Z,3.01
2022-09-06T08:56:41.728Z,3.01
2022-09-06T09:01:49.454Z,3.01
2022-09-06T09:06:57.373Z,3.01
2022-09-06T09:12:05.516Z,3.0
2022-09-06T09:17:14.246Z,2.99
2022-09-06T09:22:22.264Z,3.01
2022-09-06T09:27:29.648Z,3.0
2022-09-06T09:32:37.768Z,3.0
2022-09-06T09:37:44.545Z,3.0
2022-09-06T09:42:52.408Z,3.01
2022-09-06T09:48:00.423Z,3.01
2022-09-06T09:53:08.020Z,3.0
2022-09-06T09:58:15.264Z,3.0
2022-09-06T10:03:24.068Z,3.0
2022-09-06T10:08:31.765Z,3.0
2022-09-06T10:13:41.175Z,3.0
2022-09-06T10:18:49.461Z,3.01
2022-09-06T10:23:57.765Z,3.0
2022-09-06T10:29:05.250Z,3.01
2022-09-06T10:34:12.462Z,3.0
2022-09-06T10:39:20.015Z,3.01
2022-09-06T10:44:27.101Z,3.01
2022-09-06T10:49:34.395Z,3.01
2022-09-06T10:54:41.547Z,3.01
2022-09-06T10:59:50.052Z,3.0
2022-09-06T11:04:58.654Z,3.01
2022-09-06T11:10:06.398Z,3.01
2022-09-06T11:15:16.781Z,3.0
2022-09-06T11:20:24.572Z,3.01
2022-09-06T11:25:32.452Z,3.01
2022-09-06T11:30:40.329Z,3.0
2022-09-06T11:35:47.919Z,3.01
2022-09-06T11:40:57.282Z,3.01
2022-09-06T11:46:05.813Z,3.0
2022-09-06T11:51:13.917Z,3.0
2022-09-06T11:56:22.494Z,3.02
2022-09-06T12:01:29.621Z,3.0
2022-09-06T12:06:37.594Z,3.01
2022-09-06T12:11:45.023Z,3.01
2022-09-06T12:16:53.414Z,3.0
2022-09-06T12:22:01.367Z,3.0
2022-09-06T12:27:08.413Z,3.01
2022-09-06T12:32:16.210Z,3.01
2022-09-06T12:37:23.509Z,3.01
2022-09-06T12:42:31.391Z,3.0
2022-09-06T12:47:39.100Z,3.01
2022-09-06T12:52:46.975Z,3.01
2022-09-06T12:57:54.162Z,3.0
2022-09-06T13:03:01.379Z,3.0
2022-09-06T13:08:08.551Z,3.01
2022-09-06T13:13:17.020Z,3.01
2022-09-06T13:18:25.894Z,3.01
2022-09-06T13:23:33.664Z,3.01
2022-09-06T13:28:42.424Z,3.01
2022-09-06T13:33:49.702Z,3.01
2022-09-06T13:38:56.260Z,3.01
2022-09-06T13:44:02.852Z,3.01
2022-09-06T13:49:09.998Z,3.01
2022-09-06T13:54:17.291Z,3.01
2022-09-06T13:59:24.638Z,3.01
2022-09-06T14:04:31.594Z,3.02
2022-09-06T14:09:38.792Z,3.01
2022-09-06T14:14:46.047Z,3.01
2022-09-06T14:19:53.195Z,3.01
2022-09-06T14:25:00.379Z,3.01
2022-09-06T14:30:07.653Z,3.01
2022-09-06T14:35:14.806Z,3.01
2022-09-06T14:40:21.675Z,3.01
2022-09-06T14:45:29.800Z,3.01
2022-09-06T14:50:37.060Z,3.01
2022-09-06T14:55:45.321Z,3.0
2022-09-06T15:00:54.091Z,3.01
2022-09-06T15:06:01.911Z,3.01
2022-09-06T15:11:09.749Z,3.01
2022-09-06T15:16:17.619Z,3.01
2022-09-06T15:21:25.385Z,3.01
2022-09-06T15:26:34.485Z,3.0
2022-09-06T15:31:42.362Z,3.01
2022-09-06T15:36:49.284Z,3.01
2022-09-06T15:41:56.258Z,3.01
2022-09-06T15:47:04.120Z,3.0
2022-09-06T15:52:12.353Z,3.0
2022-09-06T15:57:20.062Z,3.01
2022-09-06T16:02:27.801Z,3.01
2022-09-06T16:07:34.667Z,3.0
2022-09-06T16:12:42.261Z,3.01
2022-09-06T16:17:54.820Z,3.0
2022-09-06T16:23:01.383Z,3.0
2022-09-06T16:28:10.370Z,3.0
2022-09-06T16:33:17.065Z,3.0
2022-09-06T16:38:24.715Z,2.99
2022-09-06T16:43:32.750Z,3.0
2022-09-06T16:48:40.154Z,3.0
2022-09-06T16:53:46.861Z,3.0
2022-09-06T16:58:54.897Z,3.0
2022-09-06T17:04:02.062Z,2.99
2022-09-06T17:09:11.188Z,2.99
2022-09-06T17:14:18.456Z,3.0
2022-09-06T17:19:26.195Z,2.99
2022-09-06T17:24:33.538Z,2.99
2022-09-06T17:29:41.303Z,3.0
2022-09-06T17:34:47.536Z,3.0
2022-09-06T17:39:54.472Z,2.99
2022-09-06T17:45:02.113Z,2.98
2022-09-06T17:50:10.036Z,2.99
2022-09-06T17:55:17.550Z,3.0
2022-09-06T18:00:25.444Z,2.99
2022-09-06T18:05:33.638Z,3.0
2022-09-06T18:10:41.587Z,2.99
2022-09-06T18:15:48.197Z,2.99
2022-09-06T18:20:55.988Z,3.0
2022-09-06T18:26:12.798Z,2.98
2022-09-06T18:31:19.573Z,2.99
2022-09-06T18:36:28.318Z,2.98
2022-09-06T18:41:35.025Z,2.98
2022-09-06T18:46:58.519Z,2.98
2022-09-06T18:52:07.004Z,3.0
2022-09-06T18:57:14.517Z,2.98
2022-09-06T19:02:21.685Z,2.98
2022-09-06T19:07:30.480Z,2.99
2022-09-06T19:12:38.196Z,2.98
2022-09-06T19:17:46.207Z,2.99
2022-09-06T19:22:54.509Z,2.98
2022-09-06T19:28:01.550Z,3.0
2022-09-06T19:33:08.242Z,2.98
2022-09-06T19:38:20.266Z,2.99
2022-09-06T19:43:29.565Z,2.99
2022-09-06T19:48:35.503Z,3.0
2022-09-06T19:53:42.691Z,2.99
2022-09-06T19:58:50.155Z,2.97
2022-09-06T20:03:58.365Z,2.98
2022-09-06T20:09:06.925Z,2.98
2022-09-06T20:14:14.018Z,2.97
2022-09-06T20:19:22.047Z,2.98
2022-09-06T20:24:29.100Z,2.98
2022-09-06T20:29:37.656Z,2.98
2022-09-06T20:34:44.147Z,2.98
2022-09-06T20:39:52.138Z,2.98
2022-09-06T20:44:58.485Z,2.97
2022-09-06T20:50:05.749Z,2.98
2022-09-06T20:55:13.520Z,2.99
2022-09-06T21:00:20.783Z,2.98
2022-09-06T21:05:28.701Z,2.98
2022-09-06T21:10:36.986Z,2.97
2022-09-06T21:15:45.817Z,2.98
2022-09-06T21:20:52.105Z,2.97
2022-09-06T21:25:59.337Z,2.99
2022-09-06T21:31:06.947Z,2.98
2022-09-06T21:36:15.421Z,2.97
2022-09-06T21:41:24.004Z,2.98
2022-09-06T21:46:31.301Z,2.98
2022-09-06T21:51:39.338Z,2.97
2022-09-06T21:56:45.815Z,2.98
2022-09-06T22:01:53.538Z,2.98
2022-09-06T22:07:01.046Z,2.98
2022-09-06T22:12:09.872Z,2.97
2022-09-06T22:17:18.335Z,2.98
2022-09-06T22:22:25.107Z,2.97
2022-09-06T22:27:32.085Z,2.97
2022-09-06T22:32:40.106Z,2.98
2022-09-06T22:37:49.521Z,2.97
2022-09-06T22:42:58.752Z,2.97
2022-09-06T22:48:07.336Z,2.98
2022-09-06T22:53:16.125Z,2.97
2022-09-06T22:58:25.211Z,2.98
2022-09-06T23:03:32.741Z,2.98
2022-09-06T23:08:40.294Z,2.97
2022-09-06T23:13:48.033Z,2.97
2022-09-06T23:18:55.504Z,2.97
2022-09-06T23:24:03.204Z,2.97
2022-09-06T23:29:09.426Z,2.97
2022-09-06T23:34:18.535Z,2.97
2022-09-06T23:39:24.469Z,2.97
2022-09-06T23:44:32.901Z,2.97
2022-09-06T23:49:41.224Z,2.96
2022-09-06T23:54:47.939Z,2.97
2022-09-06T23:59:55.395Z,2.96
